sensor_id;sensor_type;location;lat;lon;timestamp;P1;durP1;ratioP1;P2;durP2;ratioP2
9771;SDS011;4925;52.588;13.370;2023-12-20T00:00:10;4.97;;;4.47;;
9771;SDS011;4925;52.588;13.370;2023-12-20T00:02:39;5.30;;;4.73;;
9771;SDS011;4925;52.588;13.370;2023-12-20T00:05:06;4.80;;;4.40;;
9771;SDS011;4925;52.588;13.370;2023-12-20T00:07:32;4.20;;;3.80;;
9771;SDS011;4925;52.588;13.370;2023-12-20T00:09:58;5.10;;;4.30;;
9771;SDS011;4925;52.588;13.370;2023-12-20T00:12:23;4.50;;;4.20;;
9771;SDS011;4925;52.588;13.370;2023-12-20T00:14:49;4.87;;;4.37;;
9771;SDS011;4925;52.588;13.370;2023-12-20T00:17:15;4.00;;;3.70;;
9771;SDS011;4925;52.588;13.370;2023-12-20T00:19:40;4.70;;;4.30;;
9771;SDS011;4925;52.588;13.370;2023-12-20T00:22:06;4.00;;;3.70;;
9771;SDS011;4925;52.588;13.370;2023-12-20T00:24:31;5.57;;;4.20;;
9771;SDS011;4925;52.588;13.370;2023-12-20T00:26:57;4.97;;;4.57;;
9771;SDS011;4925;52.588;13.370;2023-12-20T00:29:23;4.63;;;4.13;;
9771;SDS011;4925;52.588;13.370;2023-12-20T00:31:48;4.33;;;3.93;;
9771;SDS011;4925;52.588;13.370;2023-12-20T00:34:14;4.50;;;4.10;;
9771;SDS011;4925;52.588;13.370;2023-12-20T00:36:40;4.17;;;3.77;;
9771;SDS011;4925;52.588;13.370;2023-12-20T00:39:05;4.43;;;3.97;;
9771;SDS011;4925;52.588;13.370;2023-12-20T00:41:32;4.60;;;4.20;;
9771;SDS011;4925;52.588;13.370;2023-12-20T00:43:58;4.73;;;4.33;;
9771;SDS011;4925;52.588;13.370;2023-12-20T00:46:24;4.77;;;4.20;;
9771;SDS011;4925;52.588;13.370;2023-12-20T00:48:50;4.23;;;3.83;;
9771;SDS011;4925;52.588;13.370;2023-12-20T00:51:16;4.43;;;4.03;;
9771;SDS011;4925;52.588;13.370;2023-12-20T00:53:41;6.03;;;4.27;;
9771;SDS011;4925;52.588;13.370;2023-12-20T00:56:08;4.23;;;3.83;;
9771;SDS011;4925;52.588;13.370;2023-12-20T00:58:34;4.60;;;4.20;;
9771;SDS011;4925;52.588;13.370;2023-12-20T01:00:59;4.67;;;4.27;;
9771;SDS011;4925;52.588;13.370;2023-12-20T01:03:26;4.77;;;4.33;;
9771;SDS011;4925;52.588;13.370;2023-12-20T01:05:51;4.43;;;4.10;;
9771;SDS011;4925;52.588;13.370;2023-12-20T01:08:17;4.60;;;4.20;;
9771;SDS011;4925;52.588;13.370;2023-12-20T01:10:44;4.97;;;4.43;;
9771;SDS011;4925;52.588;13.370;2023-12-20T01:13:12;4.93;;;4.53;;
9771;SDS011;4925;52.588;13.370;2023-12-20T01:15:38;4.90;;;4.10;;
9771;SDS011;4925;52.588;13.370;2023-12-20T01:18:04;4.77;;;4.37;;
9771;SDS011;4925;52.588;13.370;2023-12-20T01:20:30;5.20;;;4.70;;
9771;SDS011;4925;52.588;13.370;2023-12-20T01:22:56;4.80;;;4.40;;
9771;SDS011;4925;52.588;13.370;2023-12-20T01:25:22;5.00;;;4.60;;
9771;SDS011;4925;52.588;13.370;2023-12-20T01:27:48;4.10;;;3.80;;
9771;SDS011;4925;52.588;13.370;2023-12-20T01:30:14;4.63;;;4.23;;
9771;SDS011;4925;52.588;13.370;2023-12-20T01:32:40;4.87;;;4.37;;
9771;SDS011;4925;52.588;13.370;2023-12-20T01:35:05;4.63;;;4.13;;
9771;SDS011;4925;52.588;13.370;2023-12-20T01:37:31;4.80;;;4.30;;
9771;SDS011;4925;52.588;13.370;2023-12-20T01:39:57;4.30;;;4.00;;
9771;SDS011;4925;52.588;13.370;2023-12-20T01:42:23;4.10;;;3.70;;
9771;SDS011;4925;52.588;13.370;2023-12-20T01:44:51;4.23;;;3.83;;
9771;SDS011;4925;52.588;13.370;2023-12-20T01:47:16;4.23;;;3.87;;
9771;SDS011;4925;52.588;13.370;2023-12-20T01:49:42;3.73;;;3.43;;
9771;SDS011;4925;52.588;13.370;2023-12-20T01:52:09;5.90;;;4.20;;
9771;SDS011;4925;52.588;13.370;2023-12-20T01:54:35;5.07;;;3.70;;
9771;SDS011;4925;52.588;13.370;2023-12-20T01:57:02;4.03;;;3.73;;
9771;SDS011;4925;52.588;13.370;2023-12-20T01:59:30;3.43;;;3.13;;
9771;SDS011;4925;52.588;13.370;2023-12-20T02:01:56;3.40;;;3.10;;
9771;SDS011;4925;52.588;13.370;2023-12-20T02:04:21;3.00;;;2.80;;
9771;SDS011;4925;52.588;13.370;2023-12-20T02:06:47;3.30;;;2.60;;
9771;SDS011;4925;52.588;13.370;2023-12-20T02:09:16;2.60;;;2.40;;
9771;SDS011;4925;52.588;13.370;2023-12-20T02:11:41;2.13;;;2.03;;
9771;SDS011;4925;52.588;13.370;2023-12-20T02:14:08;2.27;;;2.00;;
9771;SDS011;4925;52.588;13.370;2023-12-20T02:16:44;2.20;;;1.93;;
9771;SDS011;4925;52.588;13.370;2023-12-20T02:19:13;1.70;;;1.60;;
9771;SDS011;4925;52.588;13.370;2023-12-20T02:21:42;1.93;;;1.57;;
9771;SDS011;4925;52.588;13.370;2023-12-20T02:24:07;4.53;;;1.70;;
9771;SDS011;4925;52.588;13.370;2023-12-20T02:26:33;1.60;;;1.50;;
9771;SDS011;4925;52.588;13.370;2023-12-20T02:29:00;2.33;;;1.37;;
9771;SDS011;4925;52.588;13.370;2023-12-20T02:31:27;1.83;;;0.97;;
9771;SDS011;4925;52.588;13.370;2023-12-20T02:33:53;1.67;;;1.40;;
9771;SDS011;4925;52.588;13.370;2023-12-20T02:36:18;1.80;;;1.30;;
9771;SDS011;4925;52.588;13.370;2023-12-20T02:38:44;1.30;;;1.20;;
9771;SDS011;4925;52.588;13.370;2023-12-20T02:41:11;2.70;;;0.93;;
9771;SDS011;4925;52.588;13.370;2023-12-20T02:43:37;1.83;;;1.40;;
9771;SDS011;4925;52.588;13.370;2023-12-20T02:46:02;1.93;;;1.07;;
9771;SDS011;4925;52.588;13.370;2023-12-20T02:48:28;2.93;;;0.90;;
9771;SDS011;4925;52.588;13.370;2023-12-20T02:50:57;3.10;;;1.30;;
9771;SDS011;4925;52.588;13.370;2023-12-20T02:53:24;4.43;;;1.10;;
9771;SDS011;4925;52.588;13.370;2023-12-20T02:55:50;3.93;;;1.07;;
9771;SDS011;4925;52.588;13.370;2023-12-20T02:58:15;2.53;;;0.90;;
9771;SDS011;4925;52.588;13.370;2023-12-20T03:00:43;1.90;;;1.10;;
9771;SDS011;4925;52.588;13.370;2023-12-20T03:03:09;3.00;;;0.90;;
9771;SDS011;4925;52.588;13.370;2023-12-20T03:05:35;3.30;;;1.20;;
9771;SDS011;4925;52.588;13.370;2023-12-20T03:08:02;1.27;;;1.10;;
9771;SDS011;4925;52.588;13.370;2023-12-20T03:10:28;2.00;;;1.13;;
9771;SDS011;4925;52.588;13.370;2023-12-20T03:12:53;3.47;;;1.20;;
9771;SDS011;4925;52.588;13.370;2023-12-20T03:15:19;3.33;;;1.13;;
9771;SDS011;4925;52.588;13.370;2023-12-20T03:17:45;1.87;;;1.10;;
9771;SDS011;4925;52.588;13.370;2023-12-20T03:20:10;2.43;;;1.10;;
9771;SDS011;4925;52.588;13.370;2023-12-20T03:22:36;3.03;;;1.50;;
9771;SDS011;4925;52.588;13.370;2023-12-20T03:25:02;3.60;;;1.53;;
9771;SDS011;4925;52.588;13.370;2023-12-20T03:27:28;4.83;;;1.60;;
9771;SDS011;4925;52.588;13.370;2023-12-20T03:29:53;2.57;;;1.10;;
9771;SDS011;4925;52.588;13.370;2023-12-20T03:32:19;3.63;;;1.17;;
9771;SDS011;4925;52.588;13.370;2023-12-20T03:34:44;4.83;;;1.30;;
9771;SDS011;4925;52.588;13.370;2023-12-20T03:37:11;5.80;;;1.23;;
9771;SDS011;4925;52.588;13.370;2023-12-20T03:39:37;3.33;;;1.23;;
9771;SDS011;4925;52.588;13.370;2023-12-20T03:42:03;3.17;;;1.00;;
9771;SDS011;4925;52.588;13.370;2023-12-20T03:44:29;1.77;;;1.03;;
9771;SDS011;4925;52.588;13.370;2023-12-20T03:46:56;4.60;;;0.90;;
9771;SDS011;4925;52.588;13.370;2023-12-20T03:49:22;1.10;;;0.90;;
9771;SDS011;4925;52.588;13.370;2023-12-20T03:51:47;5.73;;;1.20;;
9771;SDS011;4925;52.588;13.370;2023-12-20T03:54:13;4.10;;;1.30;;
9771;SDS011;4925;52.588;13.370;2023-12-20T03:56:39;3.93;;;1.30;;
9771;SDS011;4925;52.588;13.370;2023-12-20T03:59:04;5.67;;;1.50;;
9771;SDS011;4925;52.588;13.370;2023-12-20T04:01:30;6.87;;;1.73;;
9771;SDS011;4925;52.588;13.370;2023-12-20T04:03:58;3.17;;;1.50;;
9771;SDS011;4925;52.588;13.370;2023-12-20T04:06:24;2.80;;;1.20;;
9771;SDS011;4925;52.588;13.370;2023-12-20T04:08:50;10.80;;;1.50;;
9771;SDS011;4925;52.588;13.370;2023-12-20T04:11:17;2.97;;;1.13;;
9771;SDS011;4925;52.588;13.370;2023-12-20T04:13:42;7.03;;;1.73;;
9771;SDS011;4925;52.588;13.370;2023-12-20T04:16:08;4.60;;;1.40;;
9771;SDS011;4925;52.588;13.370;2023-12-20T04:18:34;4.10;;;1.73;;
9771;SDS011;4925;52.588;13.370;2023-12-20T04:21:01;8.53;;;1.53;;
9771;SDS011;4925;52.588;13.370;2023-12-20T04:23:28;7.67;;;1.63;;
9771;SDS011;4925;52.588;13.370;2023-12-20T04:25:54;8.60;;;1.70;;
9771;SDS011;4925;52.588;13.370;2023-12-20T04:28:20;5.80;;;1.90;;
9771;SDS011;4925;52.588;13.370;2023-12-20T04:30:45;7.43;;;1.33;;
9771;SDS011;4925;52.588;13.370;2023-12-20T04:33:11;5.00;;;1.43;;
9771;SDS011;4925;52.588;13.370;2023-12-20T04:35:37;5.33;;;1.50;;
9771;SDS011;4925;52.588;13.370;2023-12-20T04:38:02;7.97;;;2.00;;
9771;SDS011;4925;52.588;13.370;2023-12-20T04:40:28;7.97;;;1.77;;
9771;SDS011;4925;52.588;13.370;2023-12-20T04:42:54;3.50;;;1.20;;
9771;SDS011;4925;52.588;13.370;2023-12-20T04:45:19;3.73;;;1.40;;
9771;SDS011;4925;52.588;13.370;2023-12-20T04:47:45;7.70;;;1.40;;
9771;SDS011;4925;52.588;13.370;2023-12-20T04:50:12;3.17;;;1.60;;
9771;SDS011;4925;52.588;13.370;2023-12-20T04:52:38;5.03;;;1.30;;
9771;SDS011;4925;52.588;13.370;2023-12-20T04:55:04;4.80;;;1.50;;
9771;SDS011;4925;52.588;13.370;2023-12-20T04:57:30;6.63;;;1.67;;
9771;SDS011;4925;52.588;13.370;2023-12-20T04:59:57;6.77;;;1.43;;
9771;SDS011;4925;52.588;13.370;2023-12-20T05:02:23;7.90;;;1.60;;
9771;SDS011;4925;52.588;13.370;2023-12-20T05:04:48;8.17;;;1.90;;
9771;SDS011;4925;52.588;13.370;2023-12-20T05:07:14;4.47;;;1.70;;
9771;SDS011;4925;52.588;13.370;2023-12-20T05:09:40;14.10;;;4.20;;
9771;SDS011;4925;52.588;13.370;2023-12-20T05:12:06;9.07;;;2.10;;
9771;SDS011;4925;52.588;13.370;2023-12-20T05:14:32;10.87;;;1.90;;
9771;SDS011;4925;52.588;13.370;2023-12-20T05:16:58;5.37;;;1.80;;
9771;SDS011;4925;52.588;13.370;2023-12-20T05:19:24;5.23;;;1.50;;
9771;SDS011;4925;52.588;13.370;2023-12-20T05:21:54;7.40;;;1.53;;
9771;SDS011;4925;52.588;13.370;2023-12-20T05:24:20;12.07;;;2.17;;
9771;SDS011;4925;52.588;13.370;2023-12-20T05:26:46;9.53;;;1.70;;
9771;SDS011;4925;52.588;13.370;2023-12-20T05:29:12;4.63;;;1.73;;
9771;SDS011;4925;52.588;13.370;2023-12-20T05:31:37;7.63;;;2.00;;
9771;SDS011;4925;52.588;13.370;2023-12-20T05:34:03;4.40;;;1.60;;
9771;SDS011;4925;52.588;13.370;2023-12-20T05:36:29;7.33;;;1.50;;
9771;SDS011;4925;52.588;13.370;2023-12-20T05:38:55;4.50;;;1.63;;
9771;SDS011;4925;52.588;13.370;2023-12-20T05:41:20;12.83;;;2.57;;
9771;SDS011;4925;52.588;13.370;2023-12-20T05:43:46;6.33;;;1.53;;
9771;SDS011;4925;52.588;13.370;2023-12-20T05:46:12;11.23;;;2.07;;
9771;SDS011;4925;52.588;13.370;2023-12-20T05:48:39;7.90;;;1.97;;
9771;SDS011;4925;52.588;13.370;2023-12-20T05:51:06;8.57;;;1.87;;
9771;SDS011;4925;52.588;13.370;2023-12-20T05:53:33;7.23;;;1.40;;
9771;SDS011;4925;52.588;13.370;2023-12-20T05:55:58;5.83;;;1.73;;
9771;SDS011;4925;52.588;13.370;2023-12-20T05:58:24;4.67;;;1.77;;
9771;SDS011;4925;52.588;13.370;2023-12-20T06:00:50;7.93;;;2.10;;
9771;SDS011;4925;52.588;13.370;2023-12-20T06:03:16;4.33;;;2.03;;
9771;SDS011;4925;52.588;13.370;2023-12-20T06:05:42;4.63;;;1.80;;
9771;SDS011;4925;52.588;13.370;2023-12-20T06:08:08;5.47;;;1.50;;
9771;SDS011;4925;52.588;13.370;2023-12-20T06:10:35;11.17;;;2.33;;
9771;SDS011;4925;52.588;13.370;2023-12-20T06:13:02;12.23;;;2.07;;
9771;SDS011;4925;52.588;13.370;2023-12-20T06:15:31;8.53;;;1.70;;
9771;SDS011;4925;52.588;13.370;2023-12-20T06:17:57;7.40;;;1.97;;
9771;SDS011;4925;52.588;13.370;2023-12-20T06:20:23;8.50;;;2.00;;
9771;SDS011;4925;52.588;13.370;2023-12-20T06:22:49;9.10;;;1.70;;
9771;SDS011;4925;52.588;13.370;2023-12-20T06:25:16;6.80;;;1.67;;
9771;SDS011;4925;52.588;13.370;2023-12-20T06:27:42;5.50;;;1.40;;
9771;SDS011;4925;52.588;13.370;2023-12-20T06:30:07;16.77;;;1.83;;
9771;SDS011;4925;52.588;13.370;2023-12-20T06:32:34;7.27;;;2.40;;
9771;SDS011;4925;52.588;13.370;2023-12-20T06:35:00;11.37;;;2.00;;
9771;SDS011;4925;52.588;13.370;2023-12-20T06:37:26;6.50;;;2.03;;
9771;SDS011;4925;52.588;13.370;2023-12-20T06:39:51;8.80;;;1.57;;
9771;SDS011;4925;52.588;13.370;2023-12-20T06:42:17;10.93;;;2.03;;
9771;SDS011;4925;52.588;13.370;2023-12-20T06:44:43;8.43;;;1.93;;
9771;SDS011;4925;52.588;13.370;2023-12-20T06:47:08;7.80;;;1.90;;
9771;SDS011;4925;52.588;13.370;2023-12-20T06:49:34;5.63;;;1.33;;
9771;SDS011;4925;52.588;13.370;2023-12-20T06:52:00;10.10;;;1.97;;
9771;SDS011;4925;52.588;13.370;2023-12-20T06:54:26;6.77;;;1.80;;
9771;SDS011;4925;52.588;13.370;2023-12-20T06:56:51;6.23;;;1.57;;
9771;SDS011;4925;52.588;13.370;2023-12-20T06:59:17;11.07;;;1.90;;
9771;SDS011;4925;52.588;13.370;2023-12-20T07:01:47;8.30;;;2.20;;
9771;SDS011;4925;52.588;13.370;2023-12-20T07:04:13;7.60;;;2.20;;
9771;SDS011;4925;52.588;13.370;2023-12-20T07:06:38;7.17;;;2.37;;
9771;SDS011;4925;52.588;13.370;2023-12-20T07:09:06;4.73;;;1.90;;
9771;SDS011;4925;52.588;13.370;2023-12-20T07:11:32;11.83;;;2.07;;
9771;SDS011;4925;52.588;13.370;2023-12-20T07:13:57;6.03;;;1.73;;
9771;SDS011;4925;52.588;13.370;2023-12-20T07:16:23;4.23;;;1.50;;
9771;SDS011;4925;52.588;13.370;2023-12-20T07:18:49;9.87;;;2.77;;
9771;SDS011;4925;52.588;13.370;2023-12-20T07:21:15;6.73;;;2.20;;
9771;SDS011;4925;52.588;13.370;2023-12-20T07:23:41;6.97;;;1.90;;
9771;SDS011;4925;52.588;13.370;2023-12-20T07:26:06;9.87;;;2.43;;
9771;SDS011;4925;52.588;13.370;2023-12-20T07:28:32;9.17;;;2.40;;
9771;SDS011;4925;52.588;13.370;2023-12-20T07:30:58;5.20;;;1.60;;
9771;SDS011;4925;52.588;13.370;2023-12-20T07:33:25;4.27;;;1.80;;
9771;SDS011;4925;52.588;13.370;2023-12-20T07:35:53;10.80;;;2.50;;
9771;SDS011;4925;52.588;13.370;2023-12-20T07:38:20;8.67;;;2.37;;
9771;SDS011;4925;52.588;13.370;2023-12-20T07:40:45;6.33;;;2.53;;
9771;SDS011;4925;52.588;13.370;2023-12-20T07:43:11;6.43;;;2.17;;
9771;SDS011;4925;52.588;13.370;2023-12-20T07:45:38;7.77;;;2.37;;
9771;SDS011;4925;52.588;13.370;2023-12-20T07:48:04;9.90;;;2.40;;
9771;SDS011;4925;52.588;13.370;2023-12-20T07:50:31;8.13;;;1.93;;
9771;SDS011;4925;52.588;13.370;2023-12-20T07:52:57;9.67;;;2.30;;
9771;SDS011;4925;52.588;13.370;2023-12-20T07:55:25;8.60;;;1.87;;
9771;SDS011;4925;52.588;13.370;2023-12-20T07:57:55;6.63;;;2.30;;
9771;SDS011;4925;52.588;13.370;2023-12-20T08:00:23;9.70;;;2.10;;
9771;SDS011;4925;52.588;13.370;2023-12-20T08:03:10;7.10;;;2.33;;
9771;SDS011;4925;52.588;13.370;2023-12-20T08:05:38;5.57;;;1.87;;
9771;SDS011;4925;52.588;13.370;2023-12-20T08:08:11;8.63;;;1.93;;
9771;SDS011;4925;52.588;13.370;2023-12-20T08:10:37;11.10;;;2.00;;
9771;SDS011;4925;52.588;13.370;2023-12-20T08:13:03;11.23;;;2.23;;
9771;SDS011;4925;52.588;13.370;2023-12-20T08:15:33;7.70;;;2.17;;
9771;SDS011;4925;52.588;13.370;2023-12-20T08:17:59;6.47;;;1.77;;
9771;SDS011;4925;52.588;13.370;2023-12-20T08:20:25;7.20;;;2.37;;
9771;SDS011;4925;52.588;13.370;2023-12-20T08:22:54;6.57;;;1.70;;
9771;SDS011;4925;52.588;13.370;2023-12-20T08:25:20;6.63;;;2.13;;
9771;SDS011;4925;52.588;13.370;2023-12-20T08:27:47;5.07;;;1.90;;
9771;SDS011;4925;52.588;13.370;2023-12-20T08:30:15;8.37;;;3.90;;
9771;SDS011;4925;52.588;13.370;2023-12-20T08:33:05;6.97;;;2.13;;
9771;SDS011;4925;52.588;13.370;2023-12-20T08:35:52;8.53;;;1.83;;
9771;SDS011;4925;52.588;13.370;2023-12-20T08:38:21;6.97;;;1.50;;
9771;SDS011;4925;52.588;13.370;2023-12-20T08:40:47;7.17;;;1.57;;
9771;SDS011;4925;52.588;13.370;2023-12-20T08:43:13;10.90;;;1.90;;
9771;SDS011;4925;52.588;13.370;2023-12-20T08:45:39;5.37;;;1.83;;
9771;SDS011;4925;52.588;13.370;2023-12-20T08:48:06;8.10;;;2.03;;
9771;SDS011;4925;52.588;13.370;2023-12-20T08:50:32;3.60;;;1.83;;
9771;SDS011;4925;52.588;13.370;2023-12-20T08:53:00;5.23;;;1.60;;
9771;SDS011;4925;52.588;13.370;2023-12-20T08:55:25;9.23;;;2.20;;
9771;SDS011;4925;52.588;13.370;2023-12-20T08:57:53;8.37;;;2.07;;
9771;SDS011;4925;52.588;13.370;2023-12-20T09:00:22;10.23;;;2.17;;
9771;SDS011;4925;52.588;13.370;2023-12-20T09:02:50;8.00;;;1.83;;
9771;SDS011;4925;52.588;13.370;2023-12-20T09:05:19;8.83;;;2.30;;
9771;SDS011;4925;52.588;13.370;2023-12-20T09:07:44;9.50;;;1.50;;
9771;SDS011;4925;52.588;13.370;2023-12-20T09:10:12;11.63;;;2.10;;
9771;SDS011;4925;52.588;13.370;2023-12-20T09:12:39;6.70;;;1.73;;
9771;SDS011;4925;52.588;13.370;2023-12-20T09:15:07;7.50;;;1.70;;
9771;SDS011;4925;52.588;13.370;2023-12-20T09:17:40;5.37;;;1.97;;
9771;SDS011;4925;52.588;13.370;2023-12-20T09:20:08;6.80;;;1.50;;
9771;SDS011;4925;52.588;13.370;2023-12-20T09:22:34;8.57;;;1.93;;
9771;SDS011;4925;52.588;13.370;2023-12-20T09:25:00;5.63;;;1.30;;
9771;SDS011;4925;52.588;13.370;2023-12-20T09:27:30;5.70;;;1.73;;
9771;SDS011;4925;52.588;13.370;2023-12-20T09:29:59;5.07;;;1.70;;
9771;SDS011;4925;52.588;13.370;2023-12-20T09:32:25;8.77;;;1.83;;
9771;SDS011;4925;52.588;13.370;2023-12-20T09:34:54;9.17;;;2.40;;
9771;SDS011;4925;52.588;13.370;2023-12-20T09:37:20;5.50;;;1.70;;
9771;SDS011;4925;52.588;13.370;2023-12-20T09:39:46;9.20;;;2.23;;
9771;SDS011;4925;52.588;13.370;2023-12-20T09:42:11;9.93;;;2.20;;
9771;SDS011;4925;52.588;13.370;2023-12-20T09:44:43;6.03;;;1.80;;
9771;SDS011;4925;52.588;13.370;2023-12-20T09:47:09;9.57;;;2.80;;
9771;SDS011;4925;52.588;13.370;2023-12-20T09:49:35;9.37;;;2.10;;
9771;SDS011;4925;52.588;13.370;2023-12-20T09:52:07;8.07;;;1.83;;
9771;SDS011;4925;52.588;13.370;2023-12-20T09:54:49;9.00;;;1.77;;
9771;SDS011;4925;52.588;13.370;2023-12-20T09:57:17;7.03;;;1.73;;
9771;SDS011;4925;52.588;13.370;2023-12-20T09:59:43;8.07;;;1.83;;
9771;SDS011;4925;52.588;13.370;2023-12-20T10:02:09;7.37;;;1.97;;
9771;SDS011;4925;52.588;13.370;2023-12-20T10:04:40;7.60;;;1.70;;
9771;SDS011;4925;52.588;13.370;2023-12-20T10:07:12;7.33;;;1.67;;
9771;SDS011;4925;52.588;13.370;2023-12-20T10:09:38;6.73;;;1.70;;
9771;SDS011;4925;52.588;13.370;2023-12-20T10:12:07;5.40;;;1.97;;
9771;SDS011;4925;52.588;13.370;2023-12-20T10:14:33;11.57;;;1.90;;
9771;SDS011;4925;52.588;13.370;2023-12-20T10:17:03;8.70;;;2.17;;
9771;SDS011;4925;52.588;13.370;2023-12-20T10:19:30;9.10;;;2.60;;
9771;SDS011;4925;52.588;13.370;2023-12-20T10:21:57;13.33;;;3.17;;
9771;SDS011;4925;52.588;13.370;2023-12-20T10:24:24;13.27;;;2.40;;
9771;SDS011;4925;52.588;13.370;2023-12-20T10:27:00;20.30;;;2.67;;
9771;SDS011;4925;52.588;13.370;2023-12-20T10:29:32;10.47;;;2.00;;
9771;SDS011;4925;52.588;13.370;2023-12-20T10:32:02;6.90;;;2.37;;
9771;SDS011;4925;52.588;13.370;2023-12-20T10:34:53;7.40;;;1.80;;
9771;SDS011;4925;52.588;13.370;2023-12-20T10:37:20;6.17;;;1.53;;
9771;SDS011;4925;52.588;13.370;2023-12-20T10:39:49;8.03;;;1.97;;
9771;SDS011;4925;52.588;13.370;2023-12-20T10:42:17;11.70;;;2.20;;
9771;SDS011;4925;52.588;13.370;2023-12-20T10:44:46;8.10;;;1.60;;
9771;SDS011;4925;52.588;13.370;2023-12-20T10:47:13;7.37;;;1.93;;
9771;SDS011;4925;52.588;13.370;2023-12-20T10:49:38;8.47;;;1.70;;
9771;SDS011;4925;52.588;13.370;2023-12-20T10:52:05;8.63;;;2.30;;
9771;SDS011;4925;52.588;13.370;2023-12-20T10:54:32;13.00;;;2.57;;
9771;SDS011;4925;52.588;13.370;2023-12-20T10:56:58;7.07;;;2.00;;
9771;SDS011;4925;52.588;13.370;2023-12-20T10:59:27;2.47;;;1.33;;
9771;SDS011;4925;52.588;13.370;2023-12-20T11:01:59;8.87;;;1.97;;
9771;SDS011;4925;52.588;13.370;2023-12-20T11:04:33;7.90;;;1.60;;
9771;SDS011;4925;52.588;13.370;2023-12-20T11:07:17;10.73;;;2.23;;
9771;SDS011;4925;52.588;13.370;2023-12-20T11:09:49;7.80;;;1.87;;
9771;SDS011;4925;52.588;13.370;2023-12-20T11:13:08;13.70;;;2.60;;
9771;SDS011;4925;52.588;13.370;2023-12-20T11:15:18;6.93;;;2.03;;
9771;SDS011;4925;52.588;13.370;2023-12-20T11:17:46;7.00;;;1.70;;
9771;SDS011;4925;52.588;13.370;2023-12-20T11:20:20;8.63;;;2.27;;
9771;SDS011;4925;52.588;13.370;2023-12-20T11:22:54;11.43;;;2.17;;
9771;SDS011;4925;52.588;13.370;2023-12-20T11:25:21;5.90;;;1.93;;
9771;SDS011;4925;52.588;13.370;2023-12-20T11:28:06;11.40;;;2.20;;
9771;SDS011;4925;52.588;13.370;2023-12-20T11:33:38;8.53;;;2.33;;
9771;SDS011;4925;52.588;13.370;2023-12-20T11:36:14;7.67;;;1.60;;
9771;SDS011;4925;52.588;13.370;2023-12-20T11:38:56;10.23;;;2.10;;
9771;SDS011;4925;52.588;13.370;2023-12-20T11:41:23;9.47;;;2.73;;
9771;SDS011;4925;52.588;13.370;2023-12-20T11:43:55;11.07;;;2.97;;
9771;SDS011;4925;52.588;13.370;2023-12-20T11:46:21;9.33;;;2.07;;
9771;SDS011;4925;52.588;13.370;2023-12-20T11:48:48;8.80;;;2.03;;
9771;SDS011;4925;52.588;13.370;2023-12-20T11:51:16;9.80;;;2.37;;
9771;SDS011;4925;52.588;13.370;2023-12-20T11:53:41;11.53;;;2.33;;
9771;SDS011;4925;52.588;13.370;2023-12-20T11:56:07;5.83;;;1.73;;
9771;SDS011;4925;52.588;13.370;2023-12-20T11:58:33;13.13;;;2.23;;
9771;SDS011;4925;52.588;13.370;2023-12-20T12:01:00;15.00;;;4.20;;
9771;SDS011;4925;52.588;13.370;2023-12-20T12:03:27;11.93;;;2.10;;
9771;SDS011;4925;52.588;13.370;2023-12-20T12:05:54;6.63;;;1.70;;
9771;SDS011;4925;52.588;13.370;2023-12-20T12:08:19;4.07;;;1.60;;
9771;SDS011;4925;52.588;13.370;2023-12-20T12:10:45;5.70;;;2.07;;
9771;SDS011;4925;52.588;13.370;2023-12-20T12:13:11;8.20;;;1.83;;
9771;SDS011;4925;52.588;13.370;2023-12-20T12:15:37;9.77;;;1.80;;
9771;SDS011;4925;52.588;13.370;2023-12-20T12:18:03;10.87;;;2.47;;
9771;SDS011;4925;52.588;13.370;2023-12-20T12:20:30;4.33;;;1.90;;
9771;SDS011;4925;52.588;13.370;2023-12-20T12:23:00;6.80;;;2.00;;
9771;SDS011;4925;52.588;13.370;2023-12-20T12:25:29;6.80;;;2.10;;
9771;SDS011;4925;52.588;13.370;2023-12-20T12:27:56;6.63;;;2.17;;
9771;SDS011;4925;52.588;13.370;2023-12-20T12:30:24;7.63;;;2.00;;
9771;SDS011;4925;52.588;13.370;2023-12-20T12:32:53;8.60;;;1.90;;
9771;SDS011;4925;52.588;13.370;2023-12-20T12:35:21;5.13;;;1.63;;
9771;SDS011;4925;52.588;13.370;2023-12-20T12:37:47;7.90;;;1.90;;
9771;SDS011;4925;52.588;13.370;2023-12-20T12:40:13;6.60;;;2.00;;
9771;SDS011;4925;52.588;13.370;2023-12-20T12:42:41;6.93;;;2.20;;
9771;SDS011;4925;52.588;13.370;2023-12-20T12:45:08;7.77;;;2.20;;
9771;SDS011;4925;52.588;13.370;2023-12-20T12:47:36;7.83;;;2.37;;
9771;SDS011;4925;52.588;13.370;2023-12-20T12:50:02;7.40;;;2.10;;
9771;SDS011;4925;52.588;13.370;2023-12-20T12:52:31;4.83;;;1.80;;
9771;SDS011;4925;52.588;13.370;2023-12-20T12:54:58;4.40;;;2.10;;
9771;SDS011;4925;52.588;13.370;2023-12-20T12:57:24;11.77;;;2.27;;
9771;SDS011;4925;52.588;13.370;2023-12-20T12:59:52;6.07;;;2.27;;
9771;SDS011;4925;52.588;13.370;2023-12-20T13:02:18;5.57;;;2.37;;
9771;SDS011;4925;52.588;13.370;2023-12-20T13:04:44;5.73;;;2.13;;
9771;SDS011;4925;52.588;13.370;2023-12-20T13:07:10;7.43;;;2.30;;
9771;SDS011;4925;52.588;13.370;2023-12-20T13:09:36;6.97;;;1.83;;
9771;SDS011;4925;52.588;13.370;2023-12-20T13:12:02;4.13;;;1.60;;
9771;SDS011;4925;52.588;13.370;2023-12-20T13:14:29;2.47;;;1.40;;
9771;SDS011;4925;52.588;13.370;2023-12-20T13:16:57;1.53;;;1.30;;
9771;SDS011;4925;52.588;13.370;2023-12-20T13:19:23;5.77;;;1.30;;
9771;SDS011;4925;52.588;13.370;2023-12-20T13:21:48;3.20;;;1.27;;
9771;SDS011;4925;52.588;13.370;2023-12-20T13:24:14;3.90;;;1.77;;
9771;SDS011;4925;52.588;13.370;2023-12-20T13:26:39;6.00;;;1.67;;
9771;SDS011;4925;52.588;13.370;2023-12-20T13:29:05;6.07;;;1.50;;
9771;SDS011;4925;52.588;13.370;2023-12-20T13:31:31;4.67;;;1.63;;
9771;SDS011;4925;52.588;13.370;2023-12-20T13:33:57;3.53;;;1.07;;
9771;SDS011;4925;52.588;13.370;2023-12-20T13:36:22;4.37;;;1.00;;
9771;SDS011;4925;52.588;13.370;2023-12-20T13:38:48;3.60;;;0.90;;
9771;SDS011;4925;52.588;13.370;2023-12-20T13:41:15;4.03;;;1.00;;
9771;SDS011;4925;52.588;13.370;2023-12-20T13:43:41;1.97;;;1.00;;
9771;SDS011;4925;52.588;13.370;2023-12-20T13:46:11;4.40;;;1.40;;
9771;SDS011;4925;52.588;13.370;2023-12-20T13:48:37;2.27;;;0.70;;
9771;SDS011;4925;52.588;13.370;2023-12-20T13:51:04;9.10;;;1.30;;
9771;SDS011;4925;52.588;13.370;2023-12-20T13:53:30;1.00;;;0.90;;
9771;SDS011;4925;52.588;13.370;2023-12-20T13:55:58;2.80;;;1.00;;
9771;SDS011;4925;52.588;13.370;2023-12-20T13:58:25;1.00;;;0.70;;
9771;SDS011;4925;52.588;13.370;2023-12-20T14:00:51;1.57;;;0.60;;
9771;SDS011;4925;52.588;13.370;2023-12-20T14:03:18;1.67;;;0.70;;
9771;SDS011;4925;52.588;13.370;2023-12-20T14:05:45;1.30;;;0.70;;
9771;SDS011;4925;52.588;13.370;2023-12-20T14:08:11;4.33;;;1.50;;
9771;SDS011;4925;52.588;13.370;2023-12-20T14:10:38;1.03;;;0.90;;
9771;SDS011;4925;52.588;13.370;2023-12-20T14:13:04;0.73;;;0.73;;
9771;SDS011;4925;52.588;13.370;2023-12-20T14:15:31;2.87;;;1.33;;
9771;SDS011;4925;52.588;13.370;2023-12-20T14:18:05;2.80;;;1.00;;
9771;SDS011;4925;52.588;13.370;2023-12-20T14:20:33;0.90;;;0.83;;
9771;SDS011;4925;52.588;13.370;2023-12-20T14:23:02;1.50;;;0.67;;
9771;SDS011;4925;52.588;13.370;2023-12-20T14:25:28;2.93;;;0.70;;
9771;SDS011;4925;52.588;13.370;2023-12-20T14:27:56;0.87;;;0.70;;
9771;SDS011;4925;52.588;13.370;2023-12-20T14:30:21;1.60;;;0.53;;
9771;SDS011;4925;52.588;13.370;2023-12-20T14:32:47;2.57;;;0.80;;
9771;SDS011;4925;52.588;13.370;2023-12-20T14:35:13;2.93;;;0.80;;
9771;SDS011;4925;52.588;13.370;2023-12-20T14:37:39;3.33;;;0.60;;
9771;SDS011;4925;52.588;13.370;2023-12-20T14:40:08;1.03;;;0.60;;
9771;SDS011;4925;52.588;13.370;2023-12-20T14:42:39;2.57;;;0.60;;
9771;SDS011;4925;52.588;13.370;2023-12-20T14:45:09;1.47;;;0.70;;
9771;SDS011;4925;52.588;13.370;2023-12-20T14:47:35;2.07;;;0.50;;
9771;SDS011;4925;52.588;13.370;2023-12-20T14:50:02;1.90;;;0.73;;
9771;SDS011;4925;52.588;13.370;2023-12-20T14:52:29;1.90;;;0.80;;
9771;SDS011;4925;52.588;13.370;2023-12-20T14:54:57;3.73;;;0.63;;
9771;SDS011;4925;52.588;13.370;2023-12-20T14:57:22;3.57;;;0.40;;
9771;SDS011;4925;52.588;13.370;2023-12-20T14:59:48;4.37;;;0.60;;
9771;SDS011;4925;52.588;13.370;2023-12-20T15:02:14;3.63;;;0.80;;